createdAt,value
2022-07-31T00:00:01.915Z,2.10
2022-07-31T00:04:54.298Z,4.63
2022-07-31T00:09:53.625Z,3.17
2022-07-31T00:14:44.485Z,1.25
2022-07-31T00:19:34.205Z,2.60
2022-07-31T00:24:27.050Z,1.65
2022-07-31T00:29:19.838Z,2.75
2022-07-31T00:34:09.540Z,2.53
2022-07-31T00:38:59.169Z,3.20
2022-07-31T00:43:51.383Z,2.65
2022-07-31T00:48:41.025Z,4.78
2022-07-31T00:53:31.171Z,4.20
2022-07-31T00:58:21.023Z,2.00
2022-07-31T01:03:13.601Z,4.05
2022-07-31T01:08:03.322Z,3.03
2022-07-31T01:12:58.912Z,2.67
2022-07-31T01:17:50.620Z,4.00
2022-07-31T01:22:59.418Z,2.03
2022-07-31T01:28:07.098Z,4.23
2022-07-31T01:33:02.921Z,5.23
2022-07-31T01:37:56.341Z,3.70
2022-07-31T01:42:53.575Z,10.43
2022-07-31T01:47:46.344Z,16.27
2022-07-31T01:52:42.115Z,15.38
2022-07-31T01:57:34.588Z,16.85
2022-07-31T02:02:27.126Z,14.95
2022-07-31T02:07:18.362Z,11.20
2022-07-31T02:12:13.619Z,8.10
2022-07-31T02:17:04.926Z,7.18
2022-07-31T02:22:17.299Z,6.83
2022-07-31T02:27:57.906Z,5.90
2022-07-31T02:32:21.098Z,6.97
2022-07-31T02:37:11.437Z,9.10
2022-07-31T02:42:02.497Z,8.40
2022-07-31T02:46:55.592Z,9.25
2022-07-31T02:51:46.110Z,5.70
2022-07-31T02:56:36.764Z,4.45
2022-07-31T03:01:27.667Z,3.95
2022-07-31T03:06:22.031Z,3.00
2022-07-31T03:11:11.730Z,3.30
2022-07-31T03:16:03.127Z,3.17
2022-07-31T03:20:54.572Z,3.97
2022-07-31T03:25:47.357Z,3.92
2022-07-31T03:30:37.416Z,3.47
2022-07-31T03:35:27.764Z,3.40
2022-07-31T03:40:18.044Z,4.78
2022-07-31T03:45:12.505Z,4.73
2022-07-31T03:50:04.768Z,5.03
2022-07-31T03:54:54.611Z,5.50
2022-07-31T03:59:48.201Z,6.10
2022-07-31T04:04:41.999Z,6.97
2022-07-31T04:09:32.092Z,6.43
2022-07-31T04:14:22.333Z,7.85
2022-07-31T04:19:12.105Z,7.23
2022-07-31T04:24:04.515Z,7.95
2022-07-31T04:29:13.367Z,8.10
2022-07-31T04:34:03.170Z,8.02
2022-07-31T04:38:53.303Z,8.68
2022-07-31T04:43:46.999Z,8.40
2022-07-31T04:48:36.673Z,9.95
2022-07-31T04:53:31.201Z,9.80
2022-07-31T04:58:21.277Z,12.30
2022-07-31T05:03:13.764Z,9.80
2022-07-31T05:08:03.941Z,10.80
2022-07-31T05:13:03.393Z,11.38
2022-07-31T05:17:55.114Z,12.40
2022-07-31T05:23:18.197Z,13.57
2022-07-31T05:28:19.951Z,14.57
2022-07-31T05:33:20.178Z,17.60
2022-07-31T05:38:11.812Z,17.70
2022-07-31T05:43:24.718Z,18.70
2022-07-31T05:48:45.038Z,19.90
2022-07-31T05:53:35.227Z,20.48
2022-07-31T05:59:01.094Z,24.40
2022-07-31T06:03:54.166Z,22.73
2022-07-31T06:08:47.231Z,24.38
2022-07-31T06:13:36.925Z,23.20
2022-07-31T06:18:52.535Z,24.20
2022-07-31T06:23:43.693Z,21.13
2022-07-31T06:29:00.520Z,22.02
2022-07-31T06:33:53.459Z,21.92
2022-07-31T06:38:47.081Z,22.07
2022-07-31T06:44:00.253Z,24.33
2022-07-31T06:49:12.293Z,22.13
2022-07-31T06:54:04.018Z,24.02
2022-07-31T06:58:55.213Z,25.60
2022-07-31T07:03:46.412Z,22.17
2022-07-31T07:08:39.151Z,22.67
2022-07-31T07:13:46.063Z,22.63
2022-07-31T07:18:39.517Z,23.20
2022-07-31T07:23:29.776Z,23.42
2022-07-31T07:28:42.127Z,22.83
2022-07-31T07:33:39.677Z,23.75
2022-07-31T07:38:31.716Z,25.20
2022-07-31T07:43:25.807Z,22.90
2022-07-31T07:48:18.189Z,22.50
2022-07-31T07:53:34.012Z,22.92
2022-07-31T07:58:42.504Z,24.37
2022-07-31T08:03:53.186Z,23.00
2022-07-31T08:08:43.075Z,27.30
2022-07-31T08:13:32.826Z,23.95
2022-07-31T08:18:41.148Z,24.27
2022-07-31T08:23:33.402Z,24.80
2022-07-31T08:28:27.421Z,25.35
2022-07-31T08:33:17.194Z,20.17
2022-07-31T08:38:16.339Z,20.05
2022-07-31T08:44:01.750Z,17.90
2022-07-31T08:48:30.512Z,17.05
2022-07-31T08:53:21.031Z,15.07
2022-07-31T08:58:24.961Z,16.20
2022-07-31T09:03:15.328Z,15.68
2022-07-31T09:08:15.895Z,14.40
2022-07-31T09:13:16.236Z,16.57
2022-07-31T09:18:18.964Z,16.55
2022-07-31T09:23:12.902Z,15.77
2022-07-31T09:28:07.389Z,14.65
2022-07-31T09:32:58.684Z,14.07
2022-07-31T09:38:13.808Z,13.40
2022-07-31T09:43:31.371Z,13.47
2022-07-31T09:48:26.674Z,12.53
2022-07-31T09:53:21.965Z,12.13
2022-07-31T09:58:16.064Z,11.93
2022-07-31T10:03:08.638Z,13.27
2022-07-31T10:08:00.399Z,12.40
2022-07-31T10:13:23.783Z,12.23
2022-07-31T10:18:15.235Z,11.77
2022-07-31T10:23:22.726Z,11.07
2022-07-31T10:28:14.816Z,11.27
2022-07-31T10:33:40.778Z,11.32
2022-07-31T10:38:44.232Z,10.02
2022-07-31T10:43:54.443Z,8.33
2022-07-31T10:49:08.565Z,7.57
2022-07-31T10:54:23.066Z,8.40
2022-07-31T10:59:32.018Z,8.20
2022-07-31T11:04:43.214Z,9.35
2022-07-31T11:09:45.474Z,9.20
2022-07-31T11:15:21.815Z,11.43
2022-07-31T11:20:39.274Z,9.77
2022-07-31T11:25:31.418Z,10.10
2022-07-31T11:30:21.417Z,7.63
2022-07-31T11:35:11.800Z,8.13
2022-07-31T11:40:04.264Z,7.40
2022-07-31T11:44:54.809Z,8.20
2022-07-31T11:49:48.935Z,7.30
2022-07-31T11:54:39.279Z,7.35
2022-07-31T11:59:44.854Z,5.95
2022-07-31T12:04:40.263Z,10.90
2022-07-31T12:10:01.253Z,7.47
2022-07-31T12:14:42.836Z,6.20
2022-07-31T12:19:37.379Z,4.93
2022-07-31T12:24:29.544Z,6.45
2022-07-31T12:29:19.197Z,5.32
2022-07-31T12:34:16.021Z,4.72
2022-07-31T12:39:08.676Z,6.03
2022-07-31T12:43:58.996Z,3.63
2022-07-31T12:48:52.466Z,3.03
2022-07-31T12:53:49.199Z,3.93
2022-07-31T12:58:41.003Z,2.92
2022-07-31T13:03:38.984Z,2.07
2022-07-31T13:08:36.522Z,2.67
2022-07-31T13:13:30.212Z,5.78
2022-07-31T13:18:19.901Z,4.07
2022-07-31T13:23:09.600Z,5.72
2022-07-31T13:27:59.529Z,5.10
2022-07-31T13:32:51.821Z,5.63
2022-07-31T13:37:45.584Z,6.43
2022-07-31T13:42:35.478Z,6.88
2022-07-31T13:47:25.816Z,7.65
2022-07-31T13:52:38.299Z,4.82
2022-07-31T13:57:31.651Z,5.78
2022-07-31T14:02:21.981Z,5.23
2022-07-31T14:07:16.880Z,5.47
2022-07-31T14:12:10.959Z,4.03
2022-07-31T14:17:03.247Z,4.00
2022-07-31T14:21:56.665Z,4.20
2022-07-31T14:26:49.748Z,5.07
2022-07-31T14:31:43.428Z,5.30
2022-07-31T14:36:33.109Z,7.63
2022-07-31T14:41:34.181Z,8.02
2022-07-31T14:46:27.326Z,7.82
2022-07-31T14:51:22.446Z,8.85
2022-07-31T14:56:12.336Z,8.90
2022-07-31T15:01:06.454Z,9.88
2022-07-31T15:06:39.440Z,9.35
2022-07-31T15:11:13.834Z,10.10
2022-07-31T15:16:04.545Z,10.57
2022-07-31T15:20:54.457Z,10.30
2022-07-31T15:25:45.640Z,8.03
2022-07-31T15:30:38.860Z,8.70
2022-07-31T15:35:29.675Z,9.93
2022-07-31T15:40:21.213Z,8.60
2022-07-31T15:45:14.969Z,8.38
2022-07-31T15:50:11.888Z,9.17
2022-07-31T15:55:02.288Z,8.25
2022-07-31T15:59:54.473Z,8.73
2022-07-31T16:04:52.970Z,7.45
2022-07-31T16:10:03.705Z,6.70
2022-07-31T16:14:56.745Z,7.32
2022-07-31T16:19:46.898Z,6.83
2022-07-31T17:58:49.710Z,12.82
2022-07-31T18:03:46.095Z,11.95
2022-07-31T18:08:54.325Z,10.00
2022-07-31T18:13:48.347Z,7.10
2022-07-31T18:18:41.390Z,8.95
2022-07-31T18:23:32.279Z,9.68
2022-07-31T19:41:25.323Z,9.93
2022-07-31T19:46:17.557Z,14.05
2022-07-31T19:51:07.984Z,15.00
2022-07-31T19:56:00.836Z,12.98
2022-07-31T20:00:52.545Z,13.80
2022-07-31T20:05:48.149Z,15.77
2022-07-31T20:10:40.394Z,12.95
2022-07-31T20:15:51.596Z,17.90
2022-07-31T20:20:41.565Z,14.43
2022-07-31T20:25:34.007Z,15.48
2022-07-31T20:30:25.213Z,18.43
2022-07-31T20:35:45.550Z,11.80
2022-07-31T20:40:27.518Z,18.08
2022-07-31T20:45:19.945Z,16.85
2022-07-31T20:50:11.384Z,15.00
2022-07-31T20:55:01.027Z,17.97
2022-07-31T20:59:50.657Z,19.60
2022-07-31T21:04:43.345Z,19.00
2022-07-31T21:09:34.391Z,21.65
2022-07-31T21:14:24.047Z,23.52
2022-07-31T21:19:13.936Z,23.00
2022-07-31T21:24:07.081Z,19.30
2022-07-31T21:29:00.250Z,20.17
2022-07-31T21:33:50.658Z,22.73
2022-07-31T21:38:41.071Z,21.45
2022-07-31T21:43:45.788Z,20.70
2022-07-31T21:48:44.826Z,22.95
2022-07-31T21:53:34.480Z,21.85
2022-07-31T21:58:24.178Z,20.25
2022-07-31T22:03:17.515Z,22.58
2022-07-31T22:08:07.447Z,23.60
2022-07-31T22:12:57.423Z,22.07
2022-07-31T22:17:48.831Z,23.80
2022-07-31T22:22:41.708Z,18.83
2022-07-31T22:27:45.322Z,14.60
2022-07-31T22:32:35.308Z,15.13
2022-07-31T22:37:26.699Z,10.70
2022-07-31T22:42:19.102Z,10.80
2022-07-31T22:47:09.955Z,6.73
2022-07-31T22:51:59.589Z,6.10
2022-07-31T22:56:49.356Z,5.32
2022-07-31T23:01:41.648Z,5.40
2022-07-31T23:06:32.858Z,6.07
2022-07-31T23:11:24.817Z,4.93
2022-07-31T23:16:14.645Z,4.25
2022-07-31T23:21:08.560Z,4.60
2022-07-31T23:26:00.138Z,3.65
2022-07-31T23:30:50.861Z,4.30
2022-07-31T23:35:41.279Z,3.90
2022-07-31T23:40:33.728Z,4.30
2022-07-31T23:45:23.705Z,4.18
2022-07-31T23:50:13.470Z,4.67
2022-07-31T23:55:03.203Z,4.55
2022-07-31T23:59:56.705Z,4.15
